Lug — FGE7581 — position and weather

sailwx.info

Track history (hours):
 
Tides and Currents Weather Stations Pressure Air Temp Water Temp Dewpoint Dewpoint Depression Visibility Wind Speed Wind Dir Waves Ship Positions

Lug

Last reported at 2017-Sep-02 16:20 UTC. Time now 2017-Sep-23 07:43 UTC.
Position N 47°29' W 003°06'.
Warning: this ship's position is 20 days out of date.

Length 10 m.

Type: Sailing vessel. MMSI: 227672930.

Date/timePositionNaut miles runAvg speedWind from/ knotsBaromVisibWave heightAir tempDewpointWater temp
2017-Sep-02 16:20N 47°29' W 003°06'0 1.1
2017-Sep-02 16:00N 47°29' W 003°06'2 4.6
2017-Sep-02 15:30N 47°27' W 003°04'4 2.6
2017-Sep-02 14:01N 47°24' W 003°04'0 6.5
2017-Sep-02 14:00N 47°24' W 003°04'3 6.7
2017-Sep-02 13:30N 47°27' W 003°04'3 5.3
2017-Sep-02 13:00N 47°29' W 003°06'  
2017-Aug-23 17:18N 47°29' W 003°06'0 0.0
2017-Aug-23 17:00N 47°29' W 003°06'2 4.2
2017-Aug-23 16:30N 47°31' W 003°04'  
Track history (hours):
 
Tides and Currents Weather Stations Pressure Air Temp Water Temp Dewpoint Dewpoint Depression Visibility Wind Speed Wind Dir Waves Ship Positions

Lug

Last reported at 2017-Sep-02 16:20 UTC. Time now 2017-Sep-23 07:43 UTC.
Position N 47°29' W 003°06'.
Warning: this ship's position is 20 days out of date.

Length 10 m.

Type: Sailing vessel. MMSI: 227672930.

Date/timePositionNaut miles runAvg speedWind from/ knotsBaromVisibWave heightAir tempDewpointWater temp
2017-Sep-02 16:20N 47°29' W 003°06'0 1.1
2017-Sep-02 16:00N 47°29' W 003°06'2 4.6
2017-Sep-02 15:30N 47°27' W 003°04'4 2.6
2017-Sep-02 14:01N 47°24' W 003°04'0 6.5
2017-Sep-02 14:00N 47°24' W 003°04'3 6.7
2017-Sep-02 13:30N 47°27' W 003°04'3 5.3
2017-Sep-02 13:00N 47°29' W 003°06'  
2017-Aug-23 17:18N 47°29' W 003°06'0 0.0
2017-Aug-23 17:00N 47°29' W 003°06'2 4.2
2017-Aug-23 16:30N 47°31' W 003°04'  

Dump ship's entire track history